createdAt,value
2019-03-15T00:00:54.070Z,2.58
2019-03-15T00:03:25.180Z,2.64
2019-03-15T00:05:56.194Z,2.64
2019-03-15T00:08:27.211Z,2.60
2019-03-15T00:10:58.247Z,2.68
2019-03-15T00:13:29.347Z,2.50
2019-03-15T00:16:00.468Z,2.61
2019-03-15T00:18:31.542Z,2.60
2019-03-15T00:21:02.716Z,2.59
2019-03-15T00:23:33.712Z,2.60
2019-03-15T00:26:04.813Z,2.69
2019-03-15T00:28:35.902Z,2.73
2019-03-15T00:31:07.008Z,2.72
2019-03-15T00:33:38.265Z,2.71
2019-03-15T00:36:09.794Z,2.70
2019-03-15T00:38:40.799Z,2.70
2019-03-15T00:41:11.762Z,2.71
2019-03-15T00:43:42.767Z,2.69
2019-03-15T00:46:13.878Z,2.74
2019-03-15T00:48:44.958Z,2.66
2019-03-15T00:51:15.955Z,2.64
2019-03-15T00:53:48.190Z,2.63
2019-03-15T00:56:19.277Z,2.69
2019-03-15T00:58:50.468Z,2.58
2019-03-15T01:01:21.583Z,2.60
2019-03-15T01:03:52.828Z,2.60
2019-03-15T01:06:23.875Z,2.62
2019-03-15T01:08:54.952Z,2.53
2019-03-15T01:11:25.929Z,2.52
2019-03-15T01:13:57.032Z,2.47
2019-03-15T01:16:28.118Z,2.47
2019-03-15T01:18:59.206Z,2.44
2019-03-15T01:21:30.207Z,2.31
2019-03-15T01:24:01.366Z,2.39
2019-03-15T01:26:32.398Z,2.38
2019-03-15T01:29:03.646Z,2.41
2019-03-15T01:31:34.639Z,2.52
2019-03-15T01:34:05.773Z,2.47
2019-03-15T01:36:36.874Z,2.48
2019-03-15T01:39:07.936Z,2.57
2019-03-15T01:41:39.061Z,2.28
2019-03-15T01:44:10.141Z,2.48
2019-03-15T01:46:41.239Z,2.34
2019-03-15T01:49:12.328Z,2.41
2019-03-15T01:51:43.394Z,2.37
2019-03-15T01:54:14.512Z,2.27
2019-03-15T01:56:45.615Z,2.22
2019-03-15T01:59:16.630Z,2.19
2019-03-15T02:01:47.795Z,2.23
2019-03-15T02:04:18.820Z,2.12
2019-03-15T02:06:49.966Z,2.27
2019-03-15T02:09:21.276Z,2.40
2019-03-15T02:11:52.437Z,2.36
2019-03-15T02:14:23.667Z,2.33
2019-03-15T02:16:54.652Z,2.27
2019-03-15T02:19:25.752Z,2.31
2019-03-15T02:21:56.760Z,2.29
2019-03-15T02:24:27.940Z,2.29
2019-03-15T02:26:59.035Z,2.23
2019-03-15T02:29:30.121Z,2.21
2019-03-15T02:32:01.233Z,2.19
2019-03-15T02:34:32.301Z,2.01
2019-03-15T02:37:03.487Z,2.11
2019-03-15T02:39:34.559Z,2.06
2019-03-15T02:42:05.592Z,2.11
2019-03-15T02:44:36.664Z,2.10
2019-03-15T02:47:07.821Z,2.10
2019-03-15T02:49:38.918Z,2.11
2019-03-15T02:52:10.028Z,2.11
2019-03-15T02:54:41.109Z,2.06
2019-03-15T02:57:12.186Z,2.07
2019-03-15T02:59:43.296Z,2.10
2019-03-15T03:02:14.383Z,2.08
2019-03-15T03:04:45.529Z,2.04
2019-03-15T03:07:16.732Z,2.05
2019-03-15T03:09:47.869Z,1.99
2019-03-15T03:12:19.061Z,1.95
2019-03-15T03:14:50.250Z,2.00
2019-03-15T03:17:21.388Z,2.01
2019-03-15T03:19:53.364Z,1.97
2019-03-15T03:22:25.278Z,2.01
2019-03-15T03:24:56.359Z,1.93
2019-03-15T03:27:27.456Z,2.02
2019-03-15T03:29:58.572Z,2.00
2019-03-15T03:32:29.601Z,1.98
2019-03-15T03:35:00.708Z,1.99
2019-03-15T03:37:32.577Z,2.04
2019-03-15T03:40:04.319Z,2.04
2019-03-15T03:42:35.340Z,1.99
2019-03-15T03:45:08.183Z,1.99
2019-03-15T03:47:39.172Z,2.02
2019-03-15T03:50:11.411Z,2.01
2019-03-15T03:52:42.489Z,2.00
2019-03-15T03:55:13.650Z,1.97
2019-03-15T03:57:44.724Z,1.96
2019-03-15T04:00:15.835Z,1.96
2019-03-15T04:02:46.929Z,1.96
2019-03-15T04:05:17.948Z,1.96
2019-03-15T04:07:49.187Z,1.91
2019-03-15T04:10:20.235Z,1.90
2019-03-15T04:12:51.304Z,1.87
2019-03-15T04:15:22.332Z,1.89
2019-03-15T04:17:53.364Z,1.91
2019-03-15T04:20:24.348Z,1.96
2019-03-15T04:22:55.671Z,1.92
2019-03-15T04:25:26.606Z,1.96
2019-03-15T04:27:57.579Z,1.98
2019-03-15T04:30:28.550Z,1.94
2019-03-15T04:32:59.682Z,2.00
2019-03-15T04:35:30.724Z,2.03
2019-03-15T04:38:01.797Z,2.06
2019-03-15T04:40:32.858Z,2.01
2019-03-15T04:43:04.194Z,1.98
2019-03-15T04:45:35.340Z,2.02
2019-03-15T04:48:06.555Z,1.97
2019-03-15T04:50:37.721Z,1.98
2019-03-15T04:53:08.765Z,2.10
2019-03-15T04:55:39.877Z,2.12
2019-03-15T04:58:10.957Z,2.14
2019-03-15T05:00:41.990Z,2.21
2019-03-15T05:03:12.989Z,2.33
2019-03-15T05:05:43.986Z,2.30
2019-03-15T05:08:15.297Z,2.43
2019-03-15T05:10:46.267Z,2.64
2019-03-15T05:13:17.250Z,2.61
2019-03-15T05:15:48.343Z,2.75
2019-03-15T05:18:19.358Z,2.68
2019-03-15T05:20:50.453Z,2.70
2019-03-15T05:23:21.527Z,2.67
2019-03-15T05:25:52.621Z,2.76
2019-03-15T05:28:23.650Z,2.77
2019-03-15T05:30:54.711Z,2.81
2019-03-15T05:33:26.876Z,2.91
2019-03-15T05:35:57.837Z,2.89
2019-03-15T05:38:28.917Z,2.93
2019-03-15T05:41:00.014Z,2.83
2019-03-15T05:43:31.911Z,3.05
2019-03-15T05:46:03.080Z,3.09
2019-03-15T05:48:34.141Z,3.31
2019-03-15T05:51:06.364Z,3.25
2019-03-15T05:53:37.454Z,3.39
2019-03-15T05:56:08.498Z,3.34
2019-03-15T05:58:39.615Z,3.21
2019-03-15T06:01:10.685Z,3.64
2019-03-15T06:03:48.642Z,3.52
2019-03-15T06:06:14.356Z,3.43
2019-03-15T06:08:45.438Z,3.41
2019-03-15T06:11:16.541Z,3.61
2019-03-15T06:13:47.626Z,3.93
2019-03-15T06:16:18.780Z,4.02
2019-03-15T06:18:49.823Z,4.26
2019-03-15T06:21:20.968Z,3.99
2019-03-15T06:23:52.062Z,4.05
2019-03-15T06:26:23.045Z,4.26
2019-03-15T06:28:54.228Z,4.04
2019-03-15T06:31:25.272Z,4.22
2019-03-15T06:33:57.509Z,4.68
2019-03-15T06:36:28.583Z,4.63
2019-03-15T06:38:59.830Z,4.45
2019-03-15T06:41:30.944Z,4.48
2019-03-15T06:44:02.020Z,4.61
2019-03-15T06:46:33.146Z,4.46
2019-03-15T06:49:04.292Z,4.81
2019-03-15T06:51:35.401Z,5.00
2019-03-15T06:54:11.479Z,4.73
2019-03-15T06:56:40.417Z,4.55
2019-03-15T06:59:11.899Z,4.42
2019-03-15T07:01:42.957Z,4.70
2019-03-15T07:04:14.144Z,4.63
2019-03-15T07:06:45.151Z,4.77
2019-03-15T07:09:16.320Z,4.78
2019-03-15T07:11:47.313Z,4.90
2019-03-15T07:14:18.426Z,4.72
2019-03-15T07:16:49.620Z,4.89
2019-03-15T07:19:27.399Z,4.62
2019-03-15T07:21:53.528Z,4.64
2019-03-15T07:24:25.737Z,4.82
2019-03-15T07:26:56.712Z,4.70
2019-03-15T07:29:27.794Z,4.77
2019-03-15T07:31:58.832Z,4.73
2019-03-15T07:34:29.796Z,5.07
2019-03-15T07:37:00.899Z,4.95
2019-03-15T07:39:31.870Z,5.27
2019-03-15T07:42:02.791Z,5.25
2019-03-15T07:44:33.787Z,5.61
2019-03-15T07:47:04.776Z,5.15
2019-03-15T07:49:35.924Z,5.34
2019-03-15T07:52:08.565Z,6.07
2019-03-15T07:54:39.684Z,5.67
2019-03-15T07:57:10.774Z,5.77
2019-03-15T07:59:41.832Z,5.74
2019-03-15T08:02:13.031Z,5.78
2019-03-15T08:04:44.115Z,6.24
2019-03-15T08:07:19.674Z,6.26
2019-03-15T08:09:50.980Z,6.38
2019-03-15T08:12:20.721Z,6.27
2019-03-15T08:14:51.696Z,6.04
2019-03-15T08:17:23.376Z,5.85
2019-03-15T08:19:54.488Z,6.07
2019-03-15T08:22:25.486Z,6.52
2019-03-15T08:24:56.674Z,6.49
2019-03-15T08:27:27.852Z,6.04
2019-03-15T08:29:59.065Z,6.50
2019-03-15T08:32:30.106Z,6.13
2019-03-15T08:35:03.962Z,5.92
2019-03-15T08:37:33.992Z,5.85
2019-03-15T08:40:08.121Z,5.75
2019-03-15T08:42:39.139Z,5.99
2019-03-15T08:45:12.969Z,6.20
2019-03-15T08:47:44.110Z,6.04
2019-03-15T08:50:17.392Z,6.26
2019-03-15T08:52:49.566Z,6.17
2019-03-15T08:55:20.673Z,5.86
2019-03-15T08:57:51.773Z,5.70
2019-03-15T09:00:22.902Z,5.60
2019-03-15T09:02:54.145Z,5.98
2019-03-15T09:05:25.192Z,6.09
2019-03-15T09:07:56.345Z,5.81
2019-03-15T09:10:27.373Z,5.75
2019-03-15T09:12:58.405Z,5.71
2019-03-15T09:15:30.927Z,6.09
2019-03-15T09:18:02.139Z,5.99
2019-03-15T09:20:33.188Z,5.82
2019-03-15T09:23:04.324Z,5.90
2019-03-15T09:25:35.366Z,5.99
2019-03-15T09:28:06.398Z,6.31
2019-03-15T09:30:37.382Z,6.45
2019-03-15T09:33:08.348Z,6.21
2019-03-15T09:35:39.573Z,6.04
2019-03-15T09:38:10.808Z,6.17
2019-03-15T09:40:42.090Z,5.97
2019-03-15T09:43:13.158Z,6.24
2019-03-15T09:45:44.306Z,6.00
2019-03-15T09:48:15.467Z,6.09
2019-03-15T09:50:51.646Z,5.91
2019-03-15T09:53:19.444Z,5.90
2019-03-15T09:55:50.465Z,6.32
2019-03-15T09:58:21.523Z,6.10
2019-03-15T10:00:52.629Z,6.10
2019-03-15T10:03:23.758Z,6.18
2019-03-15T10:05:54.867Z,6.26
2019-03-15T10:08:26.020Z,6.28
2019-03-15T10:10:57.447Z,6.69
2019-03-15T10:13:28.526Z,6.29
2019-03-15T10:15:59.620Z,6.27
2019-03-15T10:18:30.896Z,6.33
2019-03-15T10:21:02.038Z,6.20
2019-03-15T10:23:33.168Z,6.17
2019-03-15T10:26:04.396Z,6.15
2019-03-15T10:28:35.591Z,6.40
2019-03-15T10:31:06.743Z,6.36
2019-03-15T10:33:49.894Z,6.34
2019-03-15T10:36:11.085Z,6.43
2019-03-15T10:38:42.172Z,6.51
2019-03-15T10:41:14.405Z,6.22
2019-03-15T10:43:45.473Z,6.46
2019-03-15T10:46:16.455Z,6.25
2019-03-15T10:48:47.643Z,6.28
2019-03-15T10:51:18.860Z,6.52
2019-03-15T10:53:49.991Z,6.37
2019-03-15T10:56:21.015Z,6.11
2019-03-15T10:58:52.188Z,6.06
2019-03-15T11:01:23.336Z,6.38
2019-03-15T11:03:54.357Z,6.20
2019-03-15T11:06:25.441Z,6.36
2019-03-15T11:08:56.607Z,6.36
2019-03-15T11:11:27.713Z,6.22
2019-03-15T11:13:58.790Z,6.22
2019-03-15T11:16:29.797Z,6.35
2019-03-15T11:19:01.044Z,6.42
2019-03-15T11:21:32.065Z,6.84
2019-03-15T11:24:03.198Z,7.09
2019-03-15T11:26:34.231Z,7.04
2019-03-15T11:29:05.417Z,6.78
2019-03-15T11:31:36.620Z,6.47
2019-03-15T11:34:07.794Z,6.41
2019-03-15T11:36:38.834Z,6.64
2019-03-15T11:39:09.980Z,6.70
2019-03-15T11:41:41.123Z,6.39
2019-03-15T11:44:12.299Z,6.12
2019-03-15T11:46:43.665Z,5.97
2019-03-15T11:49:15.019Z,5.99
2019-03-15T11:51:46.209Z,5.96
2019-03-15T11:54:17.267Z,6.23
2019-03-15T11:56:50.814Z,6.43
2019-03-15T11:59:21.088Z,6.04
2019-03-15T12:02:03.537Z,6.18
2019-03-15T12:04:24.974Z,6.33
2019-03-15T12:06:56.156Z,6.23
2019-03-15T12:09:27.223Z,6.36
2019-03-15T12:11:58.407Z,6.79
2019-03-15T12:14:40.490Z,6.77
2019-03-15T12:17:02.368Z,7.00
2019-03-15T12:19:33.557Z,6.94
2019-03-15T12:22:06.775Z,6.60
2019-03-15T12:24:38.194Z,6.31
2019-03-15T12:27:09.294Z,6.38
2019-03-15T12:29:41.030Z,6.31
2019-03-15T12:32:12.199Z,6.54
2019-03-15T12:34:43.288Z,6.88
2019-03-15T12:37:14.277Z,6.95
2019-03-15T12:39:45.432Z,7.00
2019-03-15T12:42:16.576Z,6.94
2019-03-15T12:44:47.653Z,6.74
2019-03-15T12:47:18.821Z,6.67
2019-03-15T12:49:50.012Z,6.89
2019-03-15T12:52:21.140Z,6.67
2019-03-15T12:54:52.233Z,6.78
2019-03-15T12:57:23.227Z,6.78
2019-03-15T12:59:54.311Z,6.59
2019-03-15T13:02:25.418Z,6.73
2019-03-15T13:04:56.490Z,6.54
2019-03-15T13:07:27.664Z,6.47
2019-03-15T13:09:58.888Z,6.31
2019-03-15T13:12:30.000Z,6.51
2019-03-15T13:15:01.184Z,6.19
2019-03-15T13:17:32.271Z,6.51
2019-03-15T13:20:03.879Z,6.51
2019-03-15T13:22:34.988Z,6.46
2019-03-15T13:25:08.516Z,6.48
2019-03-15T13:27:40.461Z,6.47
2019-03-15T13:30:16.805Z,6.19
2019-03-15T13:32:47.877Z,6.17
2019-03-15T13:35:19.033Z,6.19
2019-03-15T13:37:50.128Z,6.09
2019-03-15T13:40:21.288Z,6.07
2019-03-15T13:42:52.414Z,6.03
2019-03-15T13:45:23.532Z,5.98
2019-03-15T13:47:54.495Z,6.00
2019-03-15T13:50:25.776Z,5.99
2019-03-15T13:52:56.962Z,6.00
2019-03-15T13:55:28.082Z,5.91
2019-03-15T13:57:59.250Z,5.92
2019-03-15T14:00:30.434Z,6.00
2019-03-15T14:03:01.494Z,5.91
2019-03-15T14:05:32.591Z,5.76
2019-03-15T14:08:11.807Z,5.70
2019-03-15T14:10:48.561Z,5.85
2019-03-15T14:13:11.787Z,5.73
2019-03-15T14:15:41.951Z,5.66
2019-03-15T14:18:12.948Z,5.67
2019-03-15T14:20:44.010Z,5.57
2019-03-15T14:23:15.047Z,5.47
2019-03-15T14:25:46.070Z,5.43
2019-03-15T14:28:17.276Z,5.44
2019-03-15T14:30:48.363Z,5.49
2019-03-15T14:33:19.405Z,5.55
2019-03-15T14:35:50.535Z,5.50
2019-03-15T14:38:21.755Z,5.46
2019-03-15T14:40:52.873Z,5.47
2019-03-15T14:43:24.069Z,5.34
2019-03-15T14:45:55.222Z,5.38
2019-03-15T14:48:26.468Z,5.42
2019-03-15T14:50:57.452Z,5.35
2019-03-15T14:53:28.540Z,5.41
2019-03-15T14:56:00.718Z,5.33
2019-03-15T14:58:31.751Z,5.31
2019-03-15T15:01:02.747Z,5.33
2019-03-15T15:03:33.866Z,5.23
2019-03-15T15:06:04.893Z,5.28
2019-03-15T15:08:35.999Z,5.26
2019-03-15T15:11:07.211Z,5.28
2019-03-15T15:13:38.318Z,5.30
2019-03-15T15:16:09.364Z,5.28
2019-03-15T15:18:40.594Z,5.30
2019-03-15T15:21:11.652Z,5.24
2019-03-15T15:23:42.709Z,5.14
2019-03-15T15:26:13.720Z,5.13
2019-03-15T15:28:44.763Z,5.09
2019-03-15T15:31:15.919Z,5.04
2019-03-15T15:33:47.057Z,5.00
2019-03-15T15:36:18.152Z,4.99
2019-03-15T15:38:49.252Z,4.97
2019-03-15T15:41:20.615Z,4.94
2019-03-15T15:43:51.817Z,4.85
2019-03-15T15:46:23.023Z,4.83
2019-03-15T15:48:54.194Z,4.80
2019-03-15T15:51:25.314Z,4.79
2019-03-15T15:53:56.357Z,4.81
2019-03-15T15:56:27.493Z,4.73
2019-03-15T15:58:58.597Z,4.76
2019-03-15T16:01:29.747Z,4.72
2019-03-15T16:04:00.787Z,4.68
2019-03-15T16:06:31.896Z,4.72
2019-03-15T16:09:03.295Z,4.70
2019-03-15T16:11:34.389Z,4.65
2019-03-15T16:14:05.562Z,4.64
2019-03-15T16:16:36.601Z,4.61
2019-03-15T16:19:07.632Z,4.60
2019-03-15T16:21:38.696Z,4.54
2019-03-15T16:24:09.734Z,4.58
2019-03-15T16:26:40.862Z,4.55
2019-03-15T16:29:11.841Z,4.56
2019-03-15T16:31:42.964Z,4.55
2019-03-15T16:34:13.999Z,4.53
2019-03-15T16:36:45.108Z,4.52
2019-03-15T16:39:16.281Z,4.49
2019-03-15T16:41:47.556Z,4.50
2019-03-15T16:44:18.565Z,4.47
2019-03-15T16:46:49.758Z,4.45
2019-03-15T16:49:20.741Z,4.47
2019-03-15T16:51:51.858Z,4.49
2019-03-15T16:54:22.939Z,4.47
2019-03-15T16:56:54.114Z,4.40
2019-03-15T16:59:25.135Z,4.43
2019-03-15T17:01:56.168Z,4.39
2019-03-15T17:04:27.198Z,4.34
2019-03-15T17:07:00.788Z,4.38
2019-03-15T17:09:31.048Z,4.31
2019-03-15T17:12:02.089Z,4.39
2019-03-15T17:14:33.373Z,4.33
2019-03-15T17:17:04.469Z,4.28
2019-03-15T17:19:35.605Z,4.31
2019-03-15T17:22:06.661Z,4.29
2019-03-15T17:24:37.734Z,4.26
2019-03-15T17:27:08.843Z,4.23
2019-03-15T17:29:39.971Z,4.25
2019-03-15T17:32:11.055Z,4.19
2019-03-15T17:34:42.129Z,4.26
2019-03-15T17:37:13.635Z,4.22
2019-03-15T17:39:44.889Z,4.22
2019-03-15T17:42:15.917Z,4.24
2019-03-15T17:44:47.297Z,4.15
2019-03-15T17:47:19.370Z,4.18
2019-03-15T17:49:50.559Z,4.22
2019-03-15T17:52:22.099Z,4.15
2019-03-15T17:54:53.170Z,4.19
2019-03-15T17:57:24.154Z,4.19
2019-03-15T18:00:44.167Z,4.19
2019-03-15T18:03:21.251Z,4.11
2019-03-15T18:05:48.325Z,4.14
2019-03-15T18:08:19.406Z,4.21
2019-03-15T18:10:50.503Z,4.00
2019-03-15T18:13:21.596Z,4.07
2019-03-15T18:15:52.692Z,4.04
2019-03-15T18:18:23.763Z,4.02
2019-03-15T18:20:54.923Z,4.00
2019-03-15T18:23:25.914Z,4.01
2019-03-15T18:25:56.974Z,3.99
2019-03-15T18:28:28.074Z,3.94
2019-03-15T18:30:59.521Z,3.97
2019-03-15T18:33:30.794Z,3.97
2019-03-15T18:36:01.970Z,3.96
2019-03-15T18:38:33.044Z,3.89
2019-03-15T18:41:05.018Z,3.91
2019-03-15T18:43:37.238Z,3.80
2019-03-15T18:46:08.351Z,3.87
2019-03-15T18:48:39.649Z,3.87
2019-03-15T18:51:10.828Z,3.84
2019-03-15T18:53:42.428Z,3.92
2019-03-15T18:56:13.482Z,3.80
2019-03-15T18:58:44.887Z,3.79
2019-03-15T19:01:15.945Z,3.74
2019-03-15T19:03:47.105Z,3.79
2019-03-15T19:06:18.244Z,3.68
2019-03-15T19:08:49.567Z,3.71
2019-03-15T19:11:20.710Z,3.70
2019-03-15T19:13:51.737Z,3.69
2019-03-15T19:16:22.839Z,3.73
2019-03-15T19:18:53.964Z,3.75
2019-03-15T19:21:25.191Z,3.63
2019-03-15T19:23:56.353Z,3.61
2019-03-15T19:26:28.983Z,3.61
2019-03-15T19:29:00.264Z,3.60
2019-03-15T19:31:31.379Z,3.59
2019-03-15T19:34:02.450Z,3.64
2019-03-15T19:36:33.644Z,3.66
2019-03-15T19:39:06.127Z,3.63
2019-03-15T19:41:37.419Z,3.66
2019-03-15T19:44:08.535Z,3.67
2019-03-15T19:46:39.702Z,3.66
2019-03-15T19:49:10.872Z,3.60
2019-03-15T19:51:42.071Z,3.61
2019-03-15T19:54:13.134Z,3.60
2019-03-15T19:56:44.233Z,3.55
2019-03-15T19:59:15.347Z,3.57
2019-03-15T20:01:46.489Z,3.57
2019-03-15T20:04:17.561Z,3.59
2019-03-15T20:06:49.971Z,3.51
2019-03-15T20:09:21.126Z,3.59
2019-03-15T20:11:52.278Z,3.63
2019-03-15T20:14:23.579Z,3.59
2019-03-15T20:16:54.683Z,3.58
2019-03-15T20:19:25.711Z,3.58
2019-03-15T20:21:56.864Z,3.54
2019-03-15T20:24:28.071Z,3.52
2019-03-15T20:26:59.508Z,3.48
2019-03-15T20:29:30.747Z,3.49
2019-03-15T20:32:01.837Z,3.44
2019-03-15T20:34:33.017Z,3.41
2019-03-15T20:37:04.241Z,3.40
2019-03-15T20:39:35.426Z,3.41
2019-03-15T20:42:06.488Z,3.38
2019-03-15T20:44:37.607Z,3.36
2019-03-15T20:47:08.777Z,3.41
2019-03-15T20:49:39.900Z,3.38
2019-03-15T20:52:11.079Z,3.37
2019-03-15T20:54:42.259Z,3.36
2019-03-15T20:57:13.284Z,3.33
2019-03-15T20:59:44.383Z,3.35
2019-03-15T21:02:15.433Z,3.37
2019-03-15T21:04:46.461Z,3.29
2019-03-15T21:07:18.050Z,3.24
2019-03-15T21:09:49.225Z,3.31
2019-03-15T21:12:20.260Z,3.33
2019-03-15T21:14:51.443Z,3.32
2019-03-15T21:17:22.619Z,3.30
2019-03-15T21:19:53.680Z,3.32
2019-03-15T21:22:24.834Z,3.30
2019-03-15T21:24:55.911Z,3.26
2019-03-15T21:27:27.135Z,3.22
2019-03-15T21:29:58.302Z,3.25
2019-03-15T21:32:30.441Z,3.18
2019-03-15T21:35:05.838Z,3.21
2019-03-15T21:37:37.939Z,3.27
2019-03-15T21:40:13.938Z,3.24
2019-03-15T21:42:44.930Z,3.25
2019-03-15T21:45:16.124Z,3.24
2019-03-15T21:47:47.226Z,3.23
2019-03-15T21:50:19.913Z,3.21
2019-03-15T21:52:50.960Z,3.14
2019-03-15T21:55:22.104Z,3.17
2019-03-15T21:57:53.243Z,3.19
2019-03-15T22:00:24.381Z,3.19
2019-03-15T22:02:55.528Z,3.17
2019-03-15T22:05:26.716Z,3.13
2019-03-15T22:07:57.860Z,3.16
2019-03-15T22:10:29.102Z,3.17
2019-03-15T22:13:00.208Z,3.25
2019-03-15T22:15:31.353Z,3.17
2019-03-15T22:18:02.481Z,3.16
2019-03-15T22:20:33.784Z,3.21
2019-03-15T22:23:04.773Z,3.18
2019-03-15T22:25:35.798Z,3.18
2019-03-15T22:28:06.971Z,3.19
2019-03-15T22:30:37.966Z,3.18
2019-03-15T22:33:08.947Z,3.20
2019-03-15T22:35:39.990Z,3.13
2019-03-15T22:38:11.136Z,3.16
2019-03-15T22:40:42.270Z,3.24
2019-03-15T22:43:13.629Z,3.15
2019-03-15T22:45:44.776Z,3.10
2019-03-15T22:48:15.819Z,3.11
2019-03-15T22:50:46.958Z,3.15
2019-03-15T22:53:20.878Z,3.15
2019-03-15T22:55:51.898Z,3.12
2019-03-15T22:58:22.937Z,3.11
2019-03-15T23:00:54.175Z,3.09
2019-03-15T23:03:25.389Z,3.07
2019-03-15T23:05:56.363Z,3.06
2019-03-15T23:08:27.535Z,3.05
2019-03-15T23:10:58.674Z,3.01
2019-03-15T23:13:29.709Z,3.37
2019-03-15T23:16:00.936Z,3.44
2019-03-15T23:18:32.536Z,3.29
2019-03-15T23:21:04.515Z,3.27
2019-03-15T23:23:35.501Z,2.95
2019-03-15T23:26:06.585Z,2.91
2019-03-15T23:28:38.725Z,2.91
2019-03-15T23:31:09.871Z,2.88
2019-03-15T23:33:41.073Z,2.91
2019-03-15T23:36:12.078Z,2.81
2019-03-15T23:38:43.183Z,2.69
2019-03-15T23:41:14.256Z,2.74
2019-03-15T23:43:45.386Z,2.71
2019-03-15T23:46:16.527Z,2.61
2019-03-15T23:48:47.841Z,2.52
2019-03-15T23:51:18.916Z,2.50
2019-03-15T23:53:50.018Z,2.60
2019-03-15T23:56:21.239Z,2.50
2019-03-15T23:58:52.345Z,2.44
